createdAt,value
2019-05-29T00:01:59.475Z,5.57
2019-05-29T00:04:26.028Z,4.77
2019-05-29T00:06:52.917Z,3.63
2019-05-29T00:09:19.570Z,4.93
2019-05-29T00:11:46.247Z,4.53
2019-05-29T00:14:25.004Z,4.83
2019-05-29T00:16:41.512Z,4.67
2019-05-29T00:19:08.776Z,4.43
2019-05-29T00:21:35.571Z,4.27
2019-05-29T00:24:02.238Z,4.27
2019-05-29T00:26:28.795Z,4.20
2019-05-29T00:28:55.475Z,4.93
2019-05-29T00:31:24.862Z,3.67
2019-05-29T00:33:51.680Z,3.70
2019-05-29T00:36:18.480Z,4.87
2019-05-29T00:38:45.412Z,4.33
2019-05-29T00:41:12.951Z,3.73
2019-05-29T00:43:39.612Z,4.67
2019-05-29T00:46:07.308Z,6.97
2019-05-29T00:48:34.029Z,5.43
2019-05-29T00:51:00.692Z,3.40
2019-05-29T00:53:27.540Z,4.00
2019-05-29T00:55:54.193Z,5.30
2019-05-29T00:58:20.919Z,4.60
2019-05-29T01:00:47.573Z,3.67
2019-05-29T01:03:15.732Z,4.50
2019-05-29T01:05:42.759Z,3.60
2019-05-29T01:08:10.462Z,5.73
2019-05-29T01:10:37.262Z,4.53
2019-05-29T01:13:04.104Z,3.27
2019-05-29T01:15:30.774Z,4.43
2019-05-29T01:17:57.628Z,4.63
2019-05-29T01:20:24.391Z,3.67
2019-05-29T01:22:51.076Z,4.07
2019-05-29T01:25:18.780Z,4.47
2019-05-29T01:27:45.603Z,3.50
2019-05-29T01:30:13.289Z,4.60
2019-05-29T01:32:39.883Z,4.83
2019-05-29T01:35:06.629Z,3.83
2019-05-29T01:37:33.439Z,4.97
2019-05-29T01:40:00.190Z,4.50
2019-05-29T01:42:27.756Z,5.17
2019-05-29T01:45:07.016Z,5.20
2019-05-29T01:47:23.666Z,6.10
2019-05-29T01:49:50.474Z,3.83
2019-05-29T01:52:17.622Z,4.90
2019-05-29T01:54:44.382Z,4.70
2019-05-29T01:57:11.024Z,4.47
2019-05-29T01:59:37.598Z,4.90
2019-05-29T02:02:04.277Z,6.63
2019-05-29T02:04:30.919Z,5.60
2019-05-29T02:06:57.599Z,5.30
2019-05-29T02:09:26.900Z,4.73
2019-05-29T02:11:53.616Z,3.97
2019-05-29T02:14:20.509Z,5.33
2019-05-29T02:16:47.513Z,5.27
2019-05-29T02:19:14.133Z,4.67
2019-05-29T02:21:40.809Z,4.67
2019-05-29T02:24:07.507Z,4.50
2019-05-29T02:26:34.098Z,4.27
2019-05-29T02:29:00.687Z,4.50
2019-05-29T02:31:28.849Z,3.23
2019-05-29T02:33:55.830Z,4.13
2019-05-29T02:36:24.378Z,5.53
2019-05-29T02:38:51.625Z,4.07
2019-05-29T02:41:19.147Z,4.23
2019-05-29T02:43:46.837Z,4.43
2019-05-29T02:46:13.516Z,4.30
2019-05-29T02:48:40.053Z,5.07
2019-05-29T02:51:07.186Z,3.83
2019-05-29T02:53:33.725Z,3.53
2019-05-29T02:56:00.374Z,3.23
2019-05-29T02:58:27.806Z,3.90
2019-05-29T03:00:55.627Z,3.17
2019-05-29T03:03:26.167Z,3.37
2019-05-29T03:05:52.759Z,3.50
2019-05-29T03:08:22.437Z,4.27
2019-05-29T03:10:49.647Z,4.00
2019-05-29T03:13:16.700Z,4.90
2019-05-29T03:15:43.356Z,3.57
2019-05-29T03:18:10.179Z,3.10
2019-05-29T03:20:37.148Z,3.77
2019-05-29T03:23:03.999Z,4.73
2019-05-29T03:25:30.796Z,3.27
2019-05-29T03:27:57.585Z,4.03
2019-05-29T03:30:27.001Z,4.57
2019-05-29T03:32:52.906Z,2.90
2019-05-29T03:35:19.482Z,4.00
2019-05-29T03:37:46.355Z,4.07
2019-05-29T03:40:13.305Z,4.17
2019-05-29T03:42:40.303Z,4.67
2019-05-29T03:45:07.343Z,3.27
2019-05-29T03:47:35.123Z,4.57
2019-05-29T03:50:02.241Z,4.33
2019-05-29T03:52:32.639Z,3.80
2019-05-29T03:55:00.306Z,3.77
2019-05-29T03:57:27.659Z,4.97
2019-05-29T03:59:54.804Z,3.97
2019-05-29T04:02:21.699Z,5.30
2019-05-29T04:04:48.347Z,6.73
2019-05-29T04:07:15.250Z,4.47
2019-05-29T04:09:44.872Z,3.63
2019-05-29T04:12:11.591Z,4.50
2019-05-29T04:14:38.482Z,3.50
2019-05-29T04:17:05.737Z,4.50
2019-05-29T04:19:34.283Z,4.73
2019-05-29T04:22:07.578Z,2.73
2019-05-29T04:24:38.078Z,2.57
2019-05-29T04:27:07.203Z,3.90
2019-05-29T04:29:34.322Z,5.10
2019-05-29T04:32:01.490Z,3.03
2019-05-29T04:34:29.564Z,4.50
2019-05-29T04:36:56.934Z,5.90
2019-05-29T04:39:23.577Z,3.10
2019-05-29T04:41:50.285Z,3.97
2019-05-29T04:44:17.027Z,3.93
2019-05-29T04:46:43.913Z,5.67
2019-05-29T04:49:10.590Z,5.93
2019-05-29T04:51:37.553Z,4.80
2019-05-29T04:54:04.757Z,5.17
2019-05-29T04:56:31.298Z,4.93
2019-05-29T04:58:58.107Z,4.83
2019-05-29T05:01:24.754Z,6.80
2019-05-29T05:03:51.309Z,5.10
2019-05-29T05:06:17.945Z,6.60
2019-05-29T05:08:44.766Z,6.23
2019-05-29T05:11:11.719Z,6.37
2019-05-29T05:13:39.711Z,4.83
2019-05-29T05:16:06.434Z,6.23
2019-05-29T05:18:34.407Z,6.80
2019-05-29T05:21:01.054Z,6.00
2019-05-29T05:23:31.905Z,6.67
2019-05-29T05:25:58.854Z,5.63
2019-05-29T05:28:25.695Z,6.57
2019-05-29T05:30:52.346Z,5.47
2019-05-29T05:33:19.051Z,6.67
2019-05-29T05:35:45.723Z,6.77
2019-05-29T05:38:12.380Z,6.13
2019-05-29T05:40:41.286Z,5.03
2019-05-29T05:43:21.202Z,6.30
2019-05-29T05:45:37.076Z,6.60
2019-05-29T05:48:03.824Z,6.90
2019-05-29T05:50:31.088Z,6.30
2019-05-29T05:52:58.142Z,9.30
2019-05-29T05:55:24.914Z,7.93
2019-05-29T05:57:51.622Z,7.63
2019-05-29T06:00:29.035Z,6.57
2019-05-29T06:02:55.959Z,7.60
2019-05-29T06:05:22.493Z,7.07
2019-05-29T06:07:49.266Z,8.23
2019-05-29T06:10:16.013Z,8.10
2019-05-29T06:12:42.939Z,8.43
2019-05-29T06:15:10.239Z,6.47
2019-05-29T06:17:37.029Z,7.20
2019-05-29T06:20:04.246Z,6.97
2019-05-29T06:22:30.939Z,8.07
2019-05-29T06:24:57.571Z,13.00
2019-05-29T06:27:24.791Z,7.83
2019-05-29T06:29:51.344Z,7.40
2019-05-29T06:32:18.139Z,10.73
2019-05-29T06:34:44.935Z,11.10
2019-05-29T06:37:11.613Z,11.43
2019-05-29T06:39:38.271Z,9.73
2019-05-29T06:42:05.028Z,15.95
2019-05-29T06:44:31.829Z,14.47
2019-05-29T06:46:58.646Z,9.83
2019-05-29T06:49:25.374Z,7.67
2019-05-29T06:51:52.216Z,7.83
2019-05-29T06:54:18.891Z,10.53
2019-05-29T06:56:45.440Z,9.43
2019-05-29T06:59:11.960Z,10.37
2019-05-29T07:01:39.387Z,9.37
2019-05-29T07:04:12.000Z,11.07
2019-05-29T07:06:34.945Z,7.70
2019-05-29T07:09:01.613Z,9.80
2019-05-29T07:11:28.370Z,11.13
2019-05-29T07:13:55.058Z,10.57
2019-05-29T07:16:21.747Z,10.27
2019-05-29T07:19:23.233Z,8.03
2019-05-29T07:21:17.000Z,9.60
2019-05-29T07:23:45.170Z,8.40
2019-05-29T07:26:12.215Z,8.40
2019-05-29T07:28:58.854Z,10.70
2019-05-29T07:31:07.682Z,9.20
2019-05-29T07:33:34.428Z,11.13
2019-05-29T07:36:01.713Z,8.97
2019-05-29T07:38:28.353Z,10.53
2019-05-29T07:40:54.984Z,9.57
2019-05-29T07:43:21.648Z,11.10
2019-05-29T07:45:49.440Z,11.93
2019-05-29T07:48:16.237Z,15.87
2019-05-29T07:50:44.106Z,11.57
2019-05-29T07:53:10.858Z,12.30
2019-05-29T07:55:38.449Z,12.53
2019-05-29T07:58:05.384Z,12.93
2019-05-29T08:00:35.774Z,14.23
2019-05-29T08:03:00.586Z,10.93
2019-05-29T08:05:27.422Z,15.97
2019-05-29T08:07:54.172Z,11.03
2019-05-29T08:10:21.022Z,12.33
2019-05-29T08:12:53.228Z,10.63
2019-05-29T08:15:16.223Z,13.37
2019-05-29T08:17:44.085Z,11.30
2019-05-29T08:20:11.830Z,11.83
2019-05-29T08:22:40.099Z,11.37
2019-05-29T08:25:06.893Z,11.50
2019-05-29T08:27:33.538Z,11.50
2019-05-29T08:30:00.170Z,12.30
2019-05-29T08:32:26.850Z,11.53
2019-05-29T08:34:53.481Z,11.17
2019-05-29T08:37:20.117Z,9.00
2019-05-29T08:39:47.530Z,9.23
2019-05-29T08:42:23.626Z,11.43
2019-05-29T08:44:43.399Z,9.50
2019-05-29T08:47:11.194Z,8.90
2019-05-29T08:49:38.039Z,9.45
2019-05-29T08:52:11.954Z,8.27
2019-05-29T08:54:33.337Z,9.87
2019-05-29T08:57:00.081Z,10.90
2019-05-29T08:59:26.692Z,7.57
2019-05-29T09:01:55.473Z,7.87
2019-05-29T09:04:21.978Z,9.33
2019-05-29T09:06:49.236Z,5.67
2019-05-29T09:09:15.944Z,10.27
2019-05-29T09:11:42.993Z,7.07
2019-05-29T09:14:09.630Z,7.23
2019-05-29T09:16:36.534Z,6.50
2019-05-29T09:19:03.548Z,5.37
2019-05-29T09:21:30.219Z,5.77
2019-05-29T09:23:58.817Z,3.93
2019-05-29T09:26:26.138Z,3.60
2019-05-29T09:28:52.747Z,3.63
2019-05-29T09:31:20.309Z,4.47
2019-05-29T09:33:47.620Z,4.07
2019-05-29T09:36:15.740Z,5.90
2019-05-29T09:38:42.895Z,3.33
2019-05-29T09:41:09.890Z,3.33
2019-05-29T09:43:36.541Z,3.40
2019-05-29T09:46:03.484Z,5.90
2019-05-29T09:48:30.148Z,3.90
2019-05-29T09:50:56.789Z,3.55
2019-05-29T09:53:23.438Z,3.87
2019-05-29T09:55:50.020Z,3.67
2019-05-29T09:58:16.660Z,4.37
2019-05-29T10:00:43.207Z,3.63
2019-05-29T10:03:09.841Z,3.70
2019-05-29T10:05:36.359Z,3.37
2019-05-29T10:08:04.414Z,7.47
2019-05-29T10:10:31.094Z,3.63
2019-05-29T10:12:58.154Z,3.53
2019-05-29T10:15:24.858Z,3.63
2019-05-29T10:17:51.481Z,4.13
2019-05-29T10:20:18.469Z,4.67
2019-05-29T10:22:45.106Z,3.30
2019-05-29T10:25:12.208Z,3.57
2019-05-29T10:27:38.860Z,3.97
2019-05-29T10:30:06.367Z,3.87
2019-05-29T10:32:33.139Z,5.37
2019-05-29T10:34:59.780Z,4.50
2019-05-29T10:37:26.453Z,4.43
2019-05-29T10:39:53.307Z,4.43
2019-05-29T10:42:20.826Z,5.47
2019-05-29T10:44:48.889Z,5.83
2019-05-29T10:47:15.748Z,4.93
2019-05-29T10:49:43.520Z,6.07
2019-05-29T10:52:15.822Z,5.57
2019-05-29T10:54:39.407Z,8.37
2019-05-29T10:57:06.217Z,4.67
2019-05-29T10:59:33.105Z,6.47
2019-05-29T11:01:59.871Z,5.63
2019-05-29T11:04:26.497Z,4.30
2019-05-29T11:06:54.964Z,5.13
2019-05-29T11:09:22.125Z,4.17
2019-05-29T11:11:50.577Z,6.03
2019-05-29T11:14:17.500Z,3.20
2019-05-29T11:16:44.292Z,3.77
2019-05-29T11:19:10.938Z,3.13
2019-05-29T11:21:37.530Z,2.70
2019-05-29T11:24:04.293Z,2.83
2019-05-29T11:26:31.039Z,2.30
2019-05-29T11:28:58.828Z,2.87
2019-05-29T11:31:25.665Z,3.00
2019-05-29T11:33:53.043Z,2.87
2019-05-29T11:36:20.032Z,2.60
2019-05-29T11:38:46.965Z,4.73
2019-05-29T11:41:25.924Z,3.90
2019-05-29T11:43:42.469Z,3.93
2019-05-29T11:46:09.169Z,3.00
2019-05-29T11:48:35.719Z,2.40
2019-05-29T11:51:02.471Z,2.80
2019-05-29T11:53:29.216Z,3.13
2019-05-29T11:55:56.516Z,4.10
2019-05-29T11:58:31.216Z,6.63
2019-05-29T12:00:52.945Z,2.50
2019-05-29T12:03:19.645Z,2.47
2019-05-29T12:05:46.267Z,2.50
2019-05-29T12:08:12.797Z,3.53
2019-05-29T12:10:39.450Z,2.37
2019-05-29T12:13:06.131Z,3.17
2019-05-29T12:15:32.862Z,2.40
2019-05-29T12:18:22.219Z,2.43
2019-05-29T12:20:29.078Z,2.73
2019-05-29T12:23:18.821Z,2.70
2019-05-29T12:25:24.662Z,2.30
2019-05-29T12:27:52.619Z,3.87
2019-05-29T12:30:19.642Z,2.60
2019-05-29T12:32:46.596Z,3.13
2019-05-29T12:35:14.074Z,2.40
2019-05-29T12:37:40.820Z,2.07
2019-05-29T12:40:08.174Z,2.33
2019-05-29T12:42:35.229Z,2.10
2019-05-29T12:45:02.137Z,2.53
2019-05-29T12:47:28.846Z,2.83
2019-05-29T12:49:55.578Z,2.70
2019-05-29T12:52:22.270Z,4.13
2019-05-29T12:54:48.928Z,2.57
2019-05-29T12:57:15.594Z,2.53
2019-05-29T12:59:42.932Z,3.80
2019-05-29T13:02:10.347Z,2.40
2019-05-29T13:05:05.122Z,2.67
2019-05-29T13:07:05.809Z,2.30
2019-05-29T13:09:32.515Z,3.20
2019-05-29T13:12:00.416Z,2.57
2019-05-29T13:14:27.444Z,3.60
2019-05-29T13:16:54.715Z,3.00
2019-05-29T13:19:21.320Z,3.60
2019-05-29T13:21:47.882Z,2.50
2019-05-29T13:24:14.517Z,4.30
2019-05-29T13:26:41.485Z,3.47
2019-05-29T13:29:08.169Z,2.97
2019-05-29T13:31:34.954Z,3.73
2019-05-29T13:34:02.100Z,3.90
2019-05-29T13:36:28.916Z,2.57
2019-05-29T13:38:55.975Z,3.10
2019-05-29T13:41:22.863Z,2.50
2019-05-29T13:43:49.621Z,2.23
2019-05-29T13:46:16.144Z,3.90
2019-05-29T13:48:42.841Z,2.40
2019-05-29T13:51:09.555Z,2.37
2019-05-29T13:53:36.218Z,2.40
2019-05-29T13:56:04.193Z,3.37
2019-05-29T13:58:30.854Z,3.30
2019-05-29T14:00:58.257Z,2.50
2019-05-29T14:03:24.961Z,1.97
2019-05-29T14:05:51.746Z,2.10
2019-05-29T14:08:18.584Z,1.60
2019-05-29T14:10:45.515Z,2.00
2019-05-29T14:13:12.240Z,2.40
2019-05-29T14:15:39.092Z,2.20
2019-05-29T14:18:07.074Z,2.23
2019-05-29T14:20:34.001Z,1.87
2019-05-29T14:23:01.286Z,1.90
2019-05-29T14:25:28.197Z,2.23
2019-05-29T14:27:55.144Z,2.83
2019-05-29T14:30:22.852Z,3.20
2019-05-29T14:32:49.666Z,2.73
2019-05-29T14:35:17.472Z,3.50
2019-05-29T14:37:44.157Z,2.13
2019-05-29T14:40:12.161Z,2.60
2019-05-29T14:42:38.956Z,1.80
2019-05-29T14:45:06.094Z,1.73
2019-05-29T14:47:33.180Z,2.57
2019-05-29T14:50:00.478Z,2.67
2019-05-29T14:52:27.356Z,2.43
2019-05-29T14:54:54.753Z,5.20
2019-05-29T14:57:26.089Z,6.90
2019-05-29T14:59:50.653Z,4.17
2019-05-29T15:02:23.913Z,6.20
2019-05-29T15:04:51.169Z,3.20
2019-05-29T15:07:18.405Z,2.37
2019-05-29T15:09:45.090Z,2.23
2019-05-29T15:12:12.150Z,3.87
2019-05-29T15:14:38.715Z,1.90
2019-05-29T15:17:06.933Z,1.97
2019-05-29T15:19:33.850Z,2.07
2019-05-29T15:22:00.922Z,2.07
2019-05-29T15:24:27.720Z,1.97
2019-05-29T15:26:54.336Z,2.50
2019-05-29T15:29:20.990Z,3.03
2019-05-29T15:31:47.918Z,2.57
2019-05-29T15:34:14.543Z,4.33
2019-05-29T15:36:41.209Z,3.53
2019-05-29T15:39:08.550Z,3.53
2019-05-29T15:41:35.649Z,2.60
2019-05-29T15:44:02.440Z,2.87
2019-05-29T15:46:29.117Z,3.20
2019-05-29T15:48:55.659Z,3.43
2019-05-29T15:51:22.237Z,3.00
2019-05-29T15:53:48.733Z,3.07
2019-05-29T15:56:26.741Z,3.40
2019-05-29T15:58:43.912Z,3.10
2019-05-29T16:01:11.701Z,2.67
2019-05-29T16:03:39.156Z,3.03
2019-05-29T16:06:05.912Z,2.73
2019-05-29T16:08:32.439Z,3.17
2019-05-29T16:10:59.027Z,2.63
2019-05-29T16:13:25.550Z,2.83
2019-05-29T16:15:53.340Z,4.57
2019-05-29T16:18:28.202Z,3.20
2019-05-29T16:20:48.648Z,3.40
2019-05-29T16:23:30.955Z,2.95
2019-05-29T16:25:44.013Z,2.20
2019-05-29T16:28:11.295Z,2.93
2019-05-29T16:30:37.952Z,2.37
2019-05-29T16:33:04.685Z,3.77
2019-05-29T16:35:31.365Z,3.40
2019-05-29T16:37:58.423Z,2.30
2019-05-29T16:40:25.282Z,4.67
2019-05-29T16:42:52.193Z,3.47
2019-05-29T16:45:20.467Z,2.53
2019-05-29T16:47:47.371Z,3.07
2019-05-29T16:50:15.091Z,2.77
2019-05-29T16:52:42.396Z,2.87
2019-05-29T16:55:09.289Z,4.27
2019-05-29T16:57:35.915Z,3.27
2019-05-29T17:00:03.311Z,3.23
2019-05-29T17:02:29.903Z,2.83
2019-05-29T17:04:58.382Z,2.60
2019-05-29T17:07:25.311Z,2.50
2019-05-29T17:09:52.029Z,3.40
2019-05-29T17:12:18.684Z,3.33
2019-05-29T17:14:45.320Z,3.50
2019-05-29T17:17:11.843Z,2.30
2019-05-29T17:19:38.407Z,2.70
2019-05-29T17:22:06.086Z,4.20
2019-05-29T17:24:32.893Z,3.37
2019-05-29T17:26:59.525Z,5.00
2019-05-29T17:29:26.273Z,4.17
2019-05-29T17:31:52.904Z,2.13
2019-05-29T17:34:19.528Z,2.57
2019-05-29T17:36:46.190Z,2.90
2019-05-29T17:39:12.952Z,2.83
2019-05-29T17:41:39.556Z,2.40
2019-05-29T17:44:06.245Z,3.13
2019-05-29T17:46:33.187Z,3.07
2019-05-29T17:48:59.817Z,3.43
2019-05-29T17:51:26.974Z,3.03
2019-05-29T17:53:54.005Z,5.83
2019-05-29T17:56:32.279Z,3.10
2019-05-29T17:58:49.254Z,2.53
2019-05-29T18:01:16.206Z,2.60
2019-05-29T18:03:42.783Z,3.00
2019-05-29T18:06:09.534Z,2.67
2019-05-29T18:08:36.262Z,2.20
2019-05-29T18:11:02.893Z,2.80
2019-05-29T18:13:29.476Z,2.90
2019-05-29T18:15:56.210Z,3.97
2019-05-29T18:18:23.553Z,3.10
2019-05-29T18:20:50.221Z,4.00
2019-05-29T18:23:17.533Z,4.33
2019-05-29T18:25:44.321Z,4.63
2019-05-29T18:28:11.160Z,3.33
2019-05-29T18:30:37.904Z,3.20
2019-05-29T18:33:04.560Z,3.10
2019-05-29T18:35:31.345Z,4.93
2019-05-29T18:37:57.978Z,2.77
2019-05-29T18:40:24.822Z,3.10
2019-05-29T18:42:52.283Z,3.23
2019-05-29T18:45:24.198Z,3.77
2019-05-29T18:47:49.295Z,2.50
2019-05-29T18:50:16.351Z,3.40
2019-05-29T18:52:43.456Z,4.53
2019-05-29T18:55:11.167Z,2.97
2019-05-29T18:57:37.693Z,2.27
2019-05-29T19:00:04.825Z,3.17
2019-05-29T19:02:31.713Z,4.40
2019-05-29T19:04:58.669Z,2.90
2019-05-29T19:07:27.645Z,3.80
2019-05-29T19:09:54.320Z,4.17
2019-05-29T19:12:21.742Z,4.73
2019-05-29T19:14:48.820Z,3.50
2019-05-29T19:17:15.679Z,4.00
2019-05-29T19:19:42.342Z,3.50
2019-05-29T19:22:09.029Z,4.33
2019-05-29T19:24:35.723Z,3.63
2019-05-29T19:27:02.798Z,3.53
2019-05-29T19:29:29.436Z,3.33
2019-05-29T19:31:56.252Z,3.57
2019-05-29T19:34:23.239Z,4.20
2019-05-29T19:36:50.110Z,6.37
2019-05-29T19:39:16.833Z,4.30
2019-05-29T19:41:43.851Z,3.47
2019-05-29T19:44:10.668Z,7.23
2019-05-29T19:46:53.149Z,4.70
2019-05-29T19:49:05.985Z,3.67
2019-05-29T19:51:33.490Z,3.43
2019-05-29T19:54:00.279Z,3.60
2019-05-29T19:56:27.570Z,5.47
2019-05-29T19:58:54.456Z,3.33
2019-05-29T20:01:30.715Z,5.97
2019-05-29T20:03:49.930Z,5.67
2019-05-29T20:06:16.745Z,3.27
2019-05-29T20:08:43.617Z,4.27
2019-05-29T20:11:10.410Z,4.43
2019-05-29T20:13:38.016Z,4.83
2019-05-29T20:16:04.883Z,4.07
2019-05-29T20:18:32.069Z,2.83
2019-05-29T20:20:58.933Z,3.03
2019-05-29T20:23:25.619Z,6.83
2019-05-29T20:25:52.860Z,4.10
2019-05-29T20:28:19.613Z,4.50
2019-05-29T20:30:46.427Z,4.37
2019-05-29T20:33:13.117Z,3.57
2019-05-29T20:35:39.880Z,3.53
2019-05-29T20:38:06.873Z,5.13
2019-05-29T20:40:35.097Z,3.33
2019-05-29T20:43:01.744Z,4.40
2019-05-29T20:45:29.171Z,3.53
2019-05-29T20:47:55.840Z,4.90
2019-05-29T20:50:22.680Z,4.10
2019-05-29T20:52:49.371Z,3.80
2019-05-29T20:55:16.364Z,4.70
2019-05-29T20:57:43.036Z,7.37
2019-05-29T21:00:10.199Z,5.17
2019-05-29T21:02:38.119Z,6.47
2019-05-29T21:05:05.734Z,5.90
2019-05-29T21:07:34.535Z,5.80
2019-05-29T21:10:01.227Z,5.37
2019-05-29T21:12:28.060Z,8.77
2019-05-29T21:14:54.844Z,6.67
2019-05-29T21:17:21.598Z,8.90
2019-05-29T21:19:48.345Z,7.97
2019-05-29T21:22:15.091Z,9.30
2019-05-29T21:24:49.655Z,7.27
2019-05-29T21:27:10.528Z,6.80
2019-05-29T21:29:37.533Z,8.33
2019-05-29T21:32:04.361Z,7.40
2019-05-29T21:34:31.093Z,7.43
2019-05-29T21:36:57.819Z,7.10
2019-05-29T21:39:24.560Z,7.63
2019-05-29T21:41:51.403Z,11.33
2019-05-29T21:44:18.093Z,6.97
2019-05-29T21:46:45.151Z,7.00
2019-05-29T21:49:11.900Z,7.03
2019-05-29T21:51:39.317Z,5.77
2019-05-29T21:54:06.133Z,6.90
2019-05-29T21:56:32.891Z,6.40
2019-05-29T21:59:03.797Z,6.20
2019-05-29T22:01:28.372Z,10.13
2019-05-29T22:03:55.389Z,6.67
2019-05-29T22:06:22.230Z,6.60
2019-05-29T22:08:49.011Z,6.43
2019-05-29T22:11:15.858Z,5.90
2019-05-29T22:13:42.672Z,5.90
2019-05-29T22:16:09.560Z,7.03
2019-05-29T22:18:36.242Z,6.43
2019-05-29T22:21:03.339Z,5.97
2019-05-29T22:23:30.036Z,5.60
2019-05-29T22:25:57.371Z,5.17
2019-05-29T22:28:24.170Z,6.67
2019-05-29T22:30:51.300Z,5.33
2019-05-29T22:33:18.171Z,6.37
2019-05-29T22:35:44.877Z,5.93
2019-05-29T22:38:11.495Z,6.97
2019-05-29T22:40:38.196Z,6.30
2019-05-29T22:43:04.827Z,6.40
2019-05-29T22:45:31.687Z,7.70
2019-05-29T22:47:58.373Z,6.80
2019-05-29T22:50:25.221Z,6.60
2019-05-29T22:52:53.808Z,5.23
2019-05-29T22:55:20.594Z,7.10
2019-05-29T22:57:47.339Z,7.63
2019-05-29T23:00:16.328Z,6.00
2019-05-29T23:02:44.027Z,6.83
2019-05-29T23:05:11.530Z,5.50
2019-05-29T23:07:38.356Z,6.47
2019-05-29T23:10:05.352Z,4.70
2019-05-29T23:12:32.092Z,6.87
2019-05-29T23:14:58.712Z,6.57
2019-05-29T23:17:25.252Z,6.23
2019-05-29T23:19:52.449Z,5.47
2019-05-29T23:22:19.160Z,6.53
2019-05-29T23:24:45.905Z,6.10
2019-05-29T23:27:12.581Z,5.73
2019-05-29T23:29:48.580Z,5.67
2019-05-29T23:32:07.939Z,6.13
2019-05-29T23:34:34.601Z,6.70
2019-05-29T23:37:01.354Z,6.90
2019-05-29T23:39:28.124Z,7.17
2019-05-29T23:41:55.218Z,6.13
2019-05-29T23:44:21.935Z,6.67
2019-05-29T23:46:48.566Z,6.93
2019-05-29T23:49:15.248Z,5.70
2019-05-29T23:51:41.909Z,6.37
2019-05-29T23:54:08.550Z,6.60
2019-05-29T23:56:35.231Z,8.57
2019-05-29T23:59:01.993Z,6.80
